Observation data for Friona on 03/13/2018      Previous  Date  Next       Current Mesonet Observations  Soil Data  Daily Summary Page  Observations in Plain Language
KFAS 130505Z 17008KT 02/M08 A3021 RMK A01 T00221084  RH  045%=      5-min Rain = 0
KFAS 130510Z 17008KT 03/M09 A3021 RMK A01 T00281085  RH  043%=      5-min Rain = 0
KFAS 130515Z 17008KT 03/M09 A3022 RMK A01 T00261085  RH  044%=      5-min Rain = 0
KFAS 130520Z 17007KT 03/M09 A3022 RMK A01 T00251086  RH  044%=      5-min Rain = 0
KFAS 130525Z 17007KT 02/M09 A3022 RMK A01 T00241086  RH  044%=      5-min Rain = 0
KFAS 130530Z 17006KT 02/M09 A3022 RMK A01 T00231086  RH  044%=      5-min Rain = 0
KFAS 130535Z 17006KT 02/M09 A3022 RMK A01 T00241087  RH  044%=      5-min Rain = 0
KFAS 130540Z 16006KT 02/M09 A3022 RMK A01 T00241088  RH  043%=      5-min Rain = 0
KFAS 130545Z 17006KT 02/M09 A3022 RMK A01 T00221088  RH  044%=      5-min Rain = 0
KFAS 130550Z 17006KT 02/M09 A3022 RMK A01 T00211088  RH  044%=      5-min Rain = 0
KFAS 130555Z 18005KT 02/M09 A3022 RMK A01 T00201089  RH  044%=      5-min Rain = 0
KFAS 130600Z 18007KT 02/M09 A3022 RMK A01 T00171089  RH  045%=      5-min Rain = 0
KFAS 130605Z 18008KT 02/M09 A3022 RMK A01 T00161088  RH  046%=      5-min Rain = 0
KFAS 130610Z 18008KT 02/M09 A3021 RMK A01 T00171086  RH  046%=      5-min Rain = 0
KFAS 130615Z 19008KT 01/M09 A3021 RMK A01 T00101087  RH  048%=      5-min Rain = 0
KFAS 130620Z 20009KT 01/M09 A3021 RMK A01 T00051090  RH  049%=      5-min Rain = 0
KFAS 130625Z 20009KT 00/M09 A3021 RMK A01 T00021087  RH  051%=      5-min Rain = 0
KFAS 130630Z 20010KT 00/M09 A3021 RMK A01 T00021086  RH  051%=      5-min Rain = 0
KFAS 130635Z 20009KT 00/M09 A3021 RMK A01 T00021087  RH  051%=      5-min Rain = 0
KFAS 130640Z 20009KT 00/M09 A3021 RMK A01 T00021085  RH  052%=      5-min Rain = 0
KFAS 130645Z 20009KT 00/M08 A3021 RMK A01 T00011083  RH  053%=      5-min Rain = 0
KFAS 130650Z 20010KT 00/M08 A302 RMK A01 T00021082  RH  053%=      5-min Rain = 0
KFAS 130655Z 20011KT 01/M08 A302 RMK A01 T00101081  RH  050%=      5-min Rain = 0
KFAS 130700Z 20011KT 02/M08 A302 RMK A01 T00161081  RH  048%=      5-min Rain = 0
KFAS 130705Z 20009KT 02/M08 A3021 RMK A01 T00161082  RH  048%=      5-min Rain = 0
KFAS 130710Z 20009KT 01/M08 A3021 RMK A01 T00121081  RH  050%=      5-min Rain = 0
KFAS 130715Z 20009KT 01/M08 A3021 RMK A01 T00121081  RH  050%=      5-min Rain = 0
KFAS 130720Z 20008KT 01/M08 A3021 RMK A01 T00101081  RH  050%=      5-min Rain = 0
KFAS 130725Z 20007KT 01/M08 A3021 RMK A01 T00071083  RH  051%=      5-min Rain = 0
KFAS 130730Z 18005KT 01/M09 A3022 RMK A01 T00051085  RH  051%=      5-min Rain = 0
KFAS 130735Z 14002KT 01/M08 A3022 RMK A01 T00071084  RH  050%=      5-min Rain = 0
KFAS 130740Z 11002KT 01/M09 A3022 RMK A01 T00111087  RH  048%=      5-min Rain = 0
KFAS 130745Z 12002KT 01/M09 A3022 RMK A01 T00111089  RH  047%=      5-min Rain = 0
KFAS 130750Z 14003KT 01/M08 A3022 RMK A01 T00121084  RH  049%=      5-min Rain = 0
KFAS 130755Z 18004KT 02/M08 A3022 RMK A01 T00151083  RH  048%=      5-min Rain = 0
KFAS 130800Z 20005KT 02/M08 A3022 RMK A01 T00151083  RH  048%=      5-min Rain = 0
KFAS 130805Z 19005KT 01/M08 A3022 RMK A01 T00091083  RH  050%=      5-min Rain = 0
KFAS 130810Z 18004KT 01/M08 A3022 RMK A01 T00081082  RH  051%=      5-min Rain = 0
KFAS 130815Z 20005KT 01/M08 A3022 RMK A01 T00101081  RH  050%=      5-min Rain = 0
KFAS 130820Z 20006KT 01/M09 A3022 RMK A01 T00101085  RH  049%=      5-min Rain = 0
KFAS 130825Z 20005KT 00/M09 A3022 RMK A01 T00041087  RH  050%=      5-min Rain = 0
KFAS 130830Z 20005KT 00/09 A3022 RMK A01 T00000-86  RH  052%=      5-min Rain = 0
KFAS 130835Z 19005KT 00/M08 A3022 RMK A01 T00041084  RH  052%=      5-min Rain = 0
KFAS 130840Z 18005KT 01/M08 A3021 RMK A01 T00081084  RH  050%=      5-min Rain = 0
KFAS 130845Z 18004KT 01/M09 A3021 RMK A01 T00081085  RH  050%=      5-min Rain = 0
KFAS 130850Z 18004KT 01/M08 A3021 RMK A01 T00061083  RH  051%=      5-min Rain = 0
KFAS 130855Z 19004KT 00/M08 A3021 RMK A01 T00031083  RH  052%=      5-min Rain = 0
KFAS 130900Z 19005KT 00/M08 A3021 RMK A01 T00031083  RH  052%=      5-min Rain = 0
KFAS 130905Z 19005KT 00/09 A3021 RMK A01 T00-00-85  RH  052%=      5-min Rain = 0
KFAS 130910Z 19005KT M00/M09 A3021 RMK A01 T10031087  RH  053%=      5-min Rain = 0
KFAS 130915Z 19005KT M01/M09 A3021 RMK A01 T10071088  RH  054%=      5-min Rain = 0
KFAS 130920Z 18005KT M01/M09 A3021 RMK A01 T10081087  RH  055%=      5-min Rain = 0
KFAS 130925Z 17006KT M01/M08 A3021 RMK A01 T10051084  RH  055%=      5-min Rain = 0
KFAS 130930Z 16005KT M01/M08 A3022 RMK A01 T10051084  RH  055%=      5-min Rain = 0
KFAS 130935Z 17005KT M01/M08 A3022 RMK A01 T10091084  RH  057%=      5-min Rain = 0
KFAS 130940Z 18005KT M01/M08 A3022 RMK A01 T10071084  RH  056%=      5-min Rain = 0
KFAS 130945Z 18005KT M01/M08 A3021 RMK A01 T10101084  RH  057%=      5-min Rain = 0
KFAS 130950Z 19005KT M01/M08 A3021 RMK A01 T10141083  RH  059%=      5-min Rain = 0
KFAS 130955Z 20006KT M02/M09 A3021 RMK A01 T10181085  RH  060%=      5-min Rain = 0
KFAS 131000Z 20006KT M02/M08 A3021 RMK A01 T10201082  RH  062%=      5-min Rain = 0
KFAS 131005Z 20006KT M02/M08 A3021 RMK A01 T10201081  RH  063%=      5-min Rain = 0
KFAS 131010Z 20005KT M02/M08 A3021 RMK A01 T10181081  RH  062%=      5-min Rain = 0
KFAS 131015Z 20004KT M01/M08 A3021 RMK A01 T10121080  RH  060%=      5-min Rain = 0
KFAS 131020Z 20005KT M01/M08 A3021 RMK A01 T10081083  RH  057%=      5-min Rain = 0
KFAS 131025Z 21006KT M01/M08 A3021 RMK A01 T10121084  RH  058%=      5-min Rain = 0
KFAS 131030Z 21005KT M02/M09 A3021 RMK A01 T10161085  RH  059%=      5-min Rain = 0
KFAS 131035Z 22005KT M02/M08 A3022 RMK A01 T10211084  RH  062%=      5-min Rain = 0
KFAS 131040Z 23004KT M02/M08 A3022 RMK A01 T10201080  RH  064%=      5-min Rain = 0
KFAS 131045Z 27003KT M02/M07 A3022 RMK A01 T10181074  RH  065%=      5-min Rain = 0
KFAS 131050Z 26002KT M01/M08 A3022 RMK A01 T10121077  RH  061%=      5-min Rain = 0
KFAS 131055Z 23002KT M01/M08 A3022 RMK A01 T10081077  RH  059%=      5-min Rain = 0
KFAS 131100Z 22002KT M01/M08 A3022 RMK A01 T10071078  RH  059%=      5-min Rain = 0
KFAS 131105Z 33000KT M01/M08 A3022 RMK A01 T10081079  RH  059%=      5-min Rain = 0
KFAS 131110Z 05001KT M01/M08 A3022 RMK A01 T10111083  RH  058%=      5-min Rain = 0
KFAS 131115Z 10002KT M01/M08 A3022 RMK A01 T10121083  RH  058%=      5-min Rain = 0
KFAS 131120Z 10002KT M01/M07 A3022 RMK A01 T10101069  RH  064%=      5-min Rain = 0
KFAS 131125Z 13002KT M01/M08 A3022 RMK A01 T10111076  RH  061%=      5-min Rain = 0
KFAS 131130Z 14002KT M01/M08 A3022 RMK A01 T10111083  RH  058%=      5-min Rain = 0
KFAS 131135Z 16003KT M01/M09 A3022 RMK A01 T10101085  RH  057%=      5-min Rain = 0
KFAS 131140Z 13004KT M01/M08 A3022 RMK A01 T10091083  RH  057%=      5-min Rain = 0
KFAS 131145Z 13004KT M01/M08 A3023 RMK A01 T10081081  RH  058%=      5-min Rain = 0
KFAS 131150Z 14004KT M01/M08 A3023 RMK A01 T10051081  RH  056%=      5-min Rain = 0
KFAS 131155Z 13004KT M00/M08 A3023 RMK A01 T10031081  RH  055%=      5-min Rain = 0
KFAS 131200Z 12004KT M00/M08 A3023 RMK A01 T10021080  RH  056%=      5-min Rain = 0
KFAS 131205Z 15004KT M00/M08 A3024 RMK A01 T10011079  RH  056%=      5-min Rain = 0
KFAS 131210Z 16004KT 00/M08 A3024 RMK A01 T00011081  RH  054%=      5-min Rain = 0
KFAS 131215Z 15003KT 00/M08 A3024 RMK A01 T00021081  RH  053%=      5-min Rain = 0
KFAS 131220Z 17002KT 00/M08 A3024 RMK A01 T00031081  RH  053%=      5-min Rain = 0
KFAS 131225Z 19003KT 00/M08 A3025 RMK A01 T00041078  RH  054%=      5-min Rain = 0
KFAS 131230Z 21003KT 00/M07 A3025 RMK A01 T00041072  RH  057%=      5-min Rain = 0
KFAS 131235Z 20003KT 00/M07 A3025 RMK A01 T00021069  RH  059%=      5-min Rain = 0
KFAS 131240Z 20002KT 00/M07 A3025 RMK A01 T00041069  RH  058%=      5-min Rain = 0
KFAS 131245Z 19003KT 01/M07 A3026 RMK A01 T00061068  RH  058%=      5-min Rain = 0
KFAS 131250Z 18004KT 01/M07 A3026 RMK A01 T00091067  RH  057%=      5-min Rain = 0
KFAS 131255Z 18004KT 01/M07 A3026 RMK A01 T00121066  RH  056%=      5-min Rain = 0
KFAS 131300Z 17004KT 02/M07 A3026 RMK A01 T00151065  RH  056%=      5-min Rain = 0
KFAS 131305Z 16004KT 02/M07 A3026 RMK A01 T00171066  RH  054%=      5-min Rain = 0
KFAS 131310Z 14004KT 02/M07 A3026 RMK A01 T00181069  RH  052%=      5-min Rain = 0
KFAS 131315Z 14004KT 02/M07 A3026 RMK A01 T00191071  RH  051%=      5-min Rain = 0
KFAS 131320Z 14004KT 02/M07 A3027 RMK A01 T00201069  RH  052%=      5-min Rain = 0
KFAS 131325Z 15004KT 02/M07 A3027 RMK A01 T00231067  RH  051%=      5-min Rain = 0
KFAS 131330Z 14006KT 03/M07 A3027 RMK A01 T00271068  RH  050%=      5-min Rain = 0
KFAS 131335Z 14005KT 03/M07 A3028 RMK A01 T00291068  RH  049%=      5-min Rain = 0
KFAS 131340Z 14005KT 03/M07 A3028 RMK A01 T00301067  RH  049%=      5-min Rain = 0
KFAS 131345Z 14005KT 03/M07 A3028 RMK A01 T00311066  RH  049%=      5-min Rain = 0
KFAS 131350Z 14005KT 03/M07 A3028 RMK A01 T00331066  RH  048%=      5-min Rain = 0
KFAS 131355Z 14004KT 03/M07 A3029 RMK A01 T00341065  RH  048%=      5-min Rain = 0
KFAS 131400Z 14005KT 04/M06 A3029 RMK A01 T00361064  RH  048%=      5-min Rain = 0
KFAS 131405Z 14006KT 04/M06 A3029 RMK A01 T00371062  RH  048%=      5-min Rain = 0
KFAS 131410Z 15007KT 04/M06 A3029 RMK A01 T00391061  RH  048%=      5-min Rain = 0
KFAS 131415Z 14007KT 04/M06 A3029 RMK A01 T00411061  RH  048%=      5-min Rain = 0
KFAS 131420Z 14008KT 04/M06 A303 RMK A01 T00421059  RH  048%=      5-min Rain = 0
KFAS 131425Z 14007KT 04/M06 A303 RMK A01 T00431057  RH  048%=      5-min Rain = 0
KFAS 131430Z 15007KT 04/M06 A303 RMK A01 T00431056  RH  048%=      5-min Rain = 0
KFAS 131435Z 16007KT 05/M06 A303 RMK A01 T00451055  RH  048%=      5-min Rain = 0
KFAS 131440Z 15007KT 05/M06 A303 RMK A01 T00461055  RH  048%=      5-min Rain = 0
KFAS 131445Z 14007KT 05/M05 A303 RMK A01 T00461054  RH  048%=      5-min Rain = 0
KFAS 131450Z 14006KT 05/M05 A303 RMK A01 T00461054  RH  048%=      5-min Rain = 0
KFAS 131455Z 15006KT 05/M05 A303 RMK A01 T00481054  RH  048%=      5-min Rain = 0
KFAS 131500Z 14007KT 05/M05 A303 RMK A01 T00511054  RH  047%=      5-min Rain = 0
KFAS 131505Z 13007KT 05/M05 A3031 RMK A01 T00511054  RH  046%=      5-min Rain = 0
KFAS 131510Z 14008KT 05/M06 A3031 RMK A01 T00511055  RH  046%=      5-min Rain = 0
KFAS 131515Z 14007KT 05/M05 A3031 RMK A01 T00541054  RH  046%=      5-min Rain = 0
KFAS 131520Z 14008KT 06/M05 A3031 RMK A01 T00561054  RH  045%=      5-min Rain = 0
KFAS 131525Z 16009KT 06/M05 A3031 RMK A01 T00591053  RH  044%=      5-min Rain = 0
KFAS 131530Z 16009KT 06/M05 A3031 RMK A01 T00611053  RH  044%=      5-min Rain = 0
KFAS 131535Z 16009KT 06/M05 A3031 RMK A01 T00621051  RH  044%=      5-min Rain = 0
KFAS 131540Z 17008KT 07/M05 A3032 RMK A01 T00661049  RH  044%=      5-min Rain = 0
KFAS 131545Z 15008KT 07/M05 A3032 RMK A01 T00681050  RH  043%=      5-min Rain = 0
KFAS 131550Z 15008KT 07/M05 A3032 RMK A01 T00671052  RH  043%=      5-min Rain = 0
KFAS 131555Z 14008KT 07/M05 A3032 RMK A01 T00701051  RH  042%=      5-min Rain = 0
KFAS 131600Z 16008KT 07/M05 A3032 RMK A01 T00711051  RH  042%=      5-min Rain = 0
KFAS 131605Z 16009KT 07/M05 A3032 RMK A01 T00731051  RH  041%=      5-min Rain = 0
KFAS 131610Z 15008KT 07/M05 A3032 RMK A01 T00731051  RH  041%=      5-min Rain = 0
KFAS 131615Z 15009KT 08/M05 A3032 RMK A01 T00761050  RH  041%=      5-min Rain = 0
KFAS 131620Z 16009KT 08/M05 A3032 RMK A01 T00811049  RH  040%=      5-min Rain = 0
KFAS 131625Z 15009KT 08/M05 A3032 RMK A01 T00821050  RH  039%=      5-min Rain = 0
KFAS 131630Z 15009KT 08/M05 A3032 RMK A01 T00821050  RH  039%=      5-min Rain = 0
KFAS 131635Z 16010KT 08/M05 A3032 RMK A01 T00831049  RH  039%=      5-min Rain = 0
KFAS 131640Z 16010KT 09/M05 A3032 RMK A01 T00851048  RH  039%=      5-min Rain = 0
KFAS 131645Z 15010KT 09/M05 A3032 RMK A01 T00901046  RH  038%=      5-min Rain = 0
KFAS 131650Z 15011KT 10/M05 A3032 RMK A01 T00971045  RH  037%=      5-min Rain = 0
KFAS 131655Z 17011G16KT 10/M05 A3032 RMK A01 T01011046  RH  035%=      5-min Rain = 0
KFAS 131700Z 16010G15KT 10/M05 A3032 RMK A01 T01011047  RH  035%=      5-min Rain = 0
KFAS 131705Z 16009G14KT 10/M05 A3032 RMK A01 T01011047  RH  035%=      5-min Rain = 0
KFAS 131710Z 15010KT 10/M05 A3031 RMK A01 T01021046  RH  035%=      5-min Rain = 0
KFAS 131715Z 16010KT 11/M05 A3031 RMK A01 T01051047  RH  034%=      5-min Rain = 0
KFAS 131720Z 15010G15KT 11/M05 A3031 RMK A01 T01081049  RH  033%=      5-min Rain = 0
KFAS 131725Z 16010KT 11/M05 A3032 RMK A01 T01071048  RH  033%=      5-min Rain = 0
KFAS 131730Z 16010KT 11/M05 A3031 RMK A01 T01091048  RH  033%=      5-min Rain = 0
KFAS 131735Z 15010KT 11/M05 A3031 RMK A01 T01091050  RH  033%=      5-min Rain = 0
KFAS 131740Z 15010KT 11/M05 A3031 RMK A01 T01091050  RH  033%=      5-min Rain = 0
KFAS 131745Z 17010KT 11/M05 A3031 RMK A01 T01091050  RH  032%=      5-min Rain = 0
KFAS 131750Z 15009KT 11/M05 A3031 RMK A01 T01121050  RH  032%=      5-min Rain = 0
KFAS 131755Z 14008G13KT 11/M05 A3031 RMK A01 T01121049  RH  032%=      5-min Rain = 0
KFAS 131800Z 17009G15KT 12/M05 A3031 RMK A01 T01151050  RH  031%=      5-min Rain = 0
KFAS 131805Z 15008KT 12/M05 A3031 RMK A01 T01211048  RH  030%=      5-min Rain = 0
KFAS 131810Z 15010KT 12/M05 A3031 RMK A01 T01241048  RH  030%=      5-min Rain = 0
KFAS 131815Z 15009G14KT 12/M05 A3031 RMK A01 T01231048  RH  030%=      5-min Rain = 0
KFAS 131820Z 15009G14KT 12/M05 A3031 RMK A01 T01241048  RH  030%=      5-min Rain = 0
KFAS 131825Z 15009KT 13/M05 A3031 RMK A01 T01281049  RH  029%=      5-min Rain = 0
KFAS 131830Z 15010G15KT 13/M05 A3031 RMK A01 T01251050  RH  029%=      5-min Rain = 0
KFAS 131835Z 15008G14KT 13/M05 A3031 RMK A01 T01261049  RH  029%=      5-min Rain = 0
KFAS 131840Z 15011KT 13/M05 A3031 RMK A01 T01281052  RH  028%=      5-min Rain = 0
KFAS 131845Z 15008G13KT 12/M05 A303 RMK A01 T01241053  RH  029%=      5-min Rain = 0
KFAS 131850Z 16009G15KT 13/M05 A303 RMK A01 T01261053  RH  028%=      5-min Rain = 0
KFAS 131855Z 17008G13KT 13/M06 A303 RMK A01 T01251055  RH  028%=      5-min Rain = 0
KFAS 131900Z 15008G14KT 13/M05 A303 RMK A01 T01281050  RH  029%=      5-min Rain = 0
KFAS 131905Z 15010KT 13/M05 A303 RMK A01 T01291049  RH  029%=      5-min Rain = 0
KFAS 131910Z 17009KT 13/M05 A303 RMK A01 T01301052  RH  028%=      5-min Rain = 0
KFAS 131915Z 16010G19KT 14/M05 A3029 RMK A01 T01361050  RH  027%=      5-min Rain = 0
KFAS 131920Z 18009G14KT 13/M05 A3029 RMK A01 T01331053  RH  027%=      5-min Rain = 0
KFAS 131925Z 18009KT 13/M05 A3028 RMK A01 T01331054  RH  027%=      5-min Rain = 0
KFAS 131930Z 13011G17KT 14/M05 A3028 RMK A01 T01351051  RH  027%=      5-min Rain = 0
KFAS 131935Z 17011G17KT 14/M06 A3028 RMK A01 T01371055  RH  026%=      5-min Rain = 0
KFAS 131940Z 15009G14KT 14/M05 A3027 RMK A01 T01411053  RH  026%=      5-min Rain = 0
KFAS 131945Z 16012KT 14/M06 A3027 RMK A01 T01431057  RH  025%=      5-min Rain = 0
KFAS 131950Z 15011KT 14/M06 A3027 RMK A01 T01421058  RH  025%=      5-min Rain = 0
KFAS 131955Z 15009G14KT 14/M05 A3027 RMK A01 T01411052  RH  026%=      5-min Rain = 0
KFAS 132000Z 15009G15KT 14/M05 A3027 RMK A01 T01391052  RH  026%=      5-min Rain = 0
KFAS 132005Z 17013KT 14/M06 A3027 RMK A01 T01391056  RH  026%=      5-min Rain = 0
KFAS 132010Z 18009KT 14/M06 A3027 RMK A01 T01391056  RH  025%=      5-min Rain = 0
KFAS 132015Z 14008G13KT 14/M06 A3027 RMK A01 T01391056  RH  025%=      5-min Rain = 0
KFAS 132020Z 15010KT 14/M06 A3027 RMK A01 T01371057  RH  025%=      5-min Rain = 0
KFAS 132025Z 16009KT 14/M06 A3027 RMK A01 T01391057  RH  025%=      5-min Rain = 0
KFAS 132030Z 15008KT 14/M06 A3027 RMK A01 T01381057  RH  025%=      5-min Rain = 0
KFAS 132035Z 16010KT 14/M06 A3027 RMK A01 T01381058  RH  025%=      5-min Rain = 0
KFAS 132040Z 15011KT 14/M06 A3027 RMK A01 T01371056  RH  026%=      5-min Rain = 0
KFAS 132045Z 15010KT 14/M06 A3026 RMK A01 T01401056  RH  025%=      5-min Rain = 0
KFAS 132050Z 16010KT 14/M06 A3026 RMK A01 T01401055  RH  025%=      5-min Rain = 0
KFAS 132055Z 17012KT 14/M06 A3026 RMK A01 T01421055  RH  025%=      5-min Rain = 0
KFAS 132100Z 18009G15KT 14/M06 A3026 RMK A01 T01421056  RH  025%=      5-min Rain = 0
KFAS 132105Z 16011G16KT 14/M06 A3026 RMK A01 T01421056  RH  025%=      5-min Rain = 0
KFAS 132110Z 18008KT 14/M06 A3026 RMK A01 T01411056  RH  025%=      5-min Rain = 0
KFAS 132115Z 15009G15KT 14/M06 A3026 RMK A01 T01431055  RH  025%=      5-min Rain = 0
KFAS 132120Z 14010KT 14/M06 A3026 RMK A01 T01411055  RH  025%=      5-min Rain = 0
KFAS 132125Z 15009G14KT 14/M06 A3026 RMK A01 T01401055  RH  025%=      5-min Rain = 0
KFAS 132130Z 13008G14KT 14/M06 A3026 RMK A01 T01391056  RH  025%=      5-min Rain = 0
KFAS 132135Z 16010G15KT 14/M06 A3025 RMK A01 T01401057  RH  025%=      5-min Rain = 0
KFAS 132140Z 15011G17KT 14/M06 A3025 RMK A01 T01411056  RH  025%=      5-min Rain = 0
KFAS 132145Z 16011G16KT 14/M06 A3025 RMK A01 T01401057  RH  025%=      5-min Rain = 0
KFAS 132150Z 15009KT 14/M06 A3025 RMK A01 T01401057  RH  025%=      5-min Rain = 0
KFAS 132155Z 14009KT 14/M06 A3025 RMK A01 T01381058  RH  025%=      5-min Rain = 0
KFAS 132200Z 13010KT 14/M06 A3025 RMK A01 T01381057  RH  025%=      5-min Rain = 0
KFAS 132205Z 15013KT 14/M06 A3025 RMK A01 T01411056  RH  025%=      5-min Rain = 0
KFAS 132210Z 16010G15KT 15/M06 A3025 RMK A01 T01461056  RH  024%=      5-min Rain = 0
KFAS 132215Z 14008G17KT 15/M06 A3025 RMK A01 T01471058  RH  024%=      5-min Rain = 0
KFAS 132220Z 14012G17KT 15/M06 A3025 RMK A01 T01481058  RH  024%=      5-min Rain = 0
KFAS 132225Z 14010KT 14/M06 A3025 RMK A01 T01441057  RH  024%=      5-min Rain = 0
KFAS 132230Z 14011G18KT 14/M06 A3024 RMK A01 T01441055  RH  025%=      5-min Rain = 0
KFAS 132235Z 14012G20KT 15/M06 A3024 RMK A01 T01511056  RH  024%=      5-min Rain = 0
KFAS 132240Z 14013KT 15/M06 A3024 RMK A01 T01521055  RH  024%=      5-min Rain = 0
KFAS 132245Z 15011G16KT 15/M06 A3024 RMK A01 T01491059  RH  023%=      5-min Rain = 0
KFAS 132250Z 14010KT 15/M06 A3024 RMK A01 T01481055  RH  024%=      5-min Rain = 0
KFAS 132255Z 15014KT 15/M06 A3024 RMK A01 T01501058  RH  023%=      5-min Rain = 0
KFAS 132300Z 14012KT 14/M06 A3024 RMK A01 T01441059  RH  024%=      5-min Rain = 0
KFAS 132305Z 15012KT 14/M06 A3024 RMK A01 T01421059  RH  024%=      5-min Rain = 0
KFAS 132310Z 17011G21KT 14/M06 A3024 RMK A01 T01431058  RH  024%=      5-min Rain = 0
KFAS 132315Z 15011G19KT 15/M06 A3024 RMK A01 T01461057  RH  024%=      5-min Rain = 0
KFAS 132320Z 15012KT 14/M06 A3024 RMK A01 T01441060  RH  024%=      5-min Rain = 0
KFAS 132325Z 14013G18KT 14/M06 A3024 RMK A01 T01431060  RH  024%=      5-min Rain = 0
KFAS 132330Z 14011KT 14/M06 A3024 RMK A01 T01441059  RH  024%=      5-min Rain = 0
KFAS 132335Z 14012KT 14/M06 A3024 RMK A01 T01441061  RH  024%=      5-min Rain = 0
KFAS 132340Z 16011KT 14/M06 A3024 RMK A01 T01391062  RH  024%=      5-min Rain = 0
KFAS 132345Z 14009G14KT 14/M06 A3024 RMK A01 T01381060  RH  025%=      5-min Rain = 0
KFAS 132350Z 15012KT 14/M06 A3024 RMK A01 T01361064  RH  024%=      5-min Rain = 0
KFAS 132355Z 15010KT 13/M06 A3024 RMK A01 T01331064  RH  025%=      5-min Rain = 0
KFAS 140000Z 13009KT 13/M06 A3024 RMK A01 T01321064  RH  025%=      5-min Rain = 0
KFAS 140005Z 14009KT 13/M06 A3024 RMK A01 T01301063  RH  025%=      5-min Rain = 0
KFAS 140010Z 15010KT 13/M07 A3024 RMK A01 T01291066  RH  025%=      5-min Rain = 0
KFAS 140015Z 14010KT 13/M07 A3024 RMK A01 T01291066  RH  025%=      5-min Rain = 0
KFAS 140020Z 14010KT 13/M07 A3024 RMK A01 T01281066  RH  025%=      5-min Rain = 0
KFAS 140025Z 15010KT 13/M07 A3024 RMK A01 T01251069  RH  025%=      5-min Rain = 0
KFAS 140030Z 15010KT 12/M07 A3024 RMK A01 T01221070  RH  025%=      5-min Rain = 0
KFAS 140035Z 14010KT 12/M07 A3024 RMK A01 T01201069  RH  026%=      5-min Rain = 0
KFAS 140040Z 13009KT 12/M07 A3024 RMK A01 T01191066  RH  027%=      5-min Rain = 0
KFAS 140045Z 13009KT 12/M06 A3024 RMK A01 T01151064  RH  028%=      5-min Rain = 0
KFAS 140050Z 13008KT 11/M06 A3024 RMK A01 T01131063  RH  028%=      5-min Rain = 0
KFAS 140055Z 13008KT 11/M06 A3025 RMK A01 T01111064  RH  029%=      5-min Rain = 0
KFAS 140100Z 13007KT 11/M06 A3025 RMK A01 T01081063  RH  030%=      5-min Rain = 0
KFAS 140105Z 13009KT 11/M07 A3024 RMK A01 T01061065  RH  030%=      5-min Rain = 0
KFAS 140110Z 13008KT 11/M06 A3024 RMK A01 T01051064  RH  030%=      5-min Rain = 0
KFAS 140115Z 13008KT 10/M06 A3025 RMK A01 T01021063  RH  031%=      5-min Rain = 0
KFAS 140120Z 13008KT 10/M06 A3025 RMK A01 T01001062  RH  031%=      5-min Rain = 0
KFAS 140125Z 13009KT 10/M06 A3025 RMK A01 T01001062  RH  031%=      5-min Rain = 0
KFAS 140130Z 13009KT 10/M06 A3025 RMK A01 T00971064  RH  032%=      5-min Rain = 0
KFAS 140135Z 13009KT 09/M06 A3025 RMK A01 T00931064  RH  032%=      5-min Rain = 0
KFAS 140140Z 13009KT 09/M07 A3025 RMK A01 T00911065  RH  033%=      5-min Rain = 0
KFAS 140145Z 13009KT 09/M07 A3025 RMK A01 T00871065  RH  033%=      5-min Rain = 0
KFAS 140150Z 13010KT 09/M06 A3025 RMK A01 T00851064  RH  034%=      5-min Rain = 0
KFAS 140155Z 13010KT 08/M06 A3025 RMK A01 T00821062  RH  035%=      5-min Rain = 0
KFAS 140200Z 14010KT 08/M06 A3025 RMK A01 T00811063  RH  036%=      5-min Rain = 0
KFAS 140205Z 14010KT 08/M06 A3026 RMK A01 T00801062  RH  036%=      5-min Rain = 0
KFAS 140210Z 14011KT 08/M06 A3026 RMK A01 T00791062  RH  036%=      5-min Rain = 0
KFAS 140215Z 14011KT 08/M06 A3026 RMK A01 T00801062  RH  036%=      5-min Rain = 0
KFAS 140220Z 14012KT 08/M06 A3026 RMK A01 T00811062  RH  036%=      5-min Rain = 0
KFAS 140225Z 14012KT 08/M06 A3026 RMK A01 T00821062  RH  036%=      5-min Rain = 0
KFAS 140230Z 14012KT 08/M06 A3026 RMK A01 T00811062  RH  036%=      5-min Rain = 0
KFAS 140235Z 14012KT 08/M06 A3026 RMK A01 T00801063  RH  036%=      5-min Rain = 0
KFAS 140240Z 14012KT 08/M07 A3026 RMK A01 T00801065  RH  035%=      5-min Rain = 0
KFAS 140245Z 14012KT 08/M07 A3027 RMK A01 T00811066  RH  035%=      5-min Rain = 0
KFAS 140250Z 14012KT 08/M07 A3027 RMK A01 T00801066  RH  035%=      5-min Rain = 0
KFAS 140255Z 14011KT 08/M07 A3027 RMK A01 T00781066  RH  035%=      5-min Rain = 0
KFAS 140300Z 14011KT 08/M06 A3027 RMK A01 T00761064  RH  036%=      5-min Rain = 0
KFAS 140305Z 14011KT 07/M06 A3027 RMK A01 T00741063  RH  037%=      5-min Rain = 0
KFAS 140310Z 13010KT 07/M06 A3027 RMK A01 T00711063  RH  038%=      5-min Rain = 0
KFAS 140315Z 13010KT 07/M06 A3028 RMK A01 T00681063  RH  039%=      5-min Rain = 0
KFAS 140320Z 13009KT 07/M06 A3028 RMK A01 T00651063  RH  039%=      5-min Rain = 0
KFAS 140325Z 13008KT 06/M06 A3028 RMK A01 T00621062  RH  041%=      5-min Rain = 0
KFAS 140330Z 12008KT 06/M06 A3028 RMK A01 T00601063  RH  041%=      5-min Rain = 0
KFAS 140335Z 13009KT 06/M06 A3028 RMK A01 T00581063  RH  042%=      5-min Rain = 0
KFAS 140340Z 13008KT 06/M06 A3028 RMK A01 T00551061  RH  043%=      5-min Rain = 0
KFAS 140345Z 13008KT 05/M06 A3028 RMK A01 T00531062  RH  044%=      5-min Rain = 0
KFAS 140350Z 13009KT 05/M06 A3029 RMK A01 T00521061  RH  044%=      5-min Rain = 0
KFAS 140355Z 13010KT 05/M06 A3029 RMK A01 T00501060  RH  045%=      5-min Rain = 0
KFAS 140400Z 13009KT 05/M06 A3029 RMK A01 T00501061  RH  045%=      5-min Rain = 0
KFAS 140405Z 14010KT 05/M06 A3029 RMK A01 T00491060  RH  045%=      5-min Rain = 0
KFAS 140410Z 14010KT 05/M06 A3029 RMK A01 T00491060  RH  045%=      5-min Rain = 0
KFAS 140415Z 14011KT 05/M06 A3029 RMK A01 T00501061  RH  045%=      5-min Rain = 0
KFAS 140420Z 14011KT 05/M06 A3029 RMK A01 T00501061  RH  044%=      5-min Rain = 0
KFAS 140425Z 14010KT 05/M06 A3029 RMK A01 T00481061  RH  045%=      5-min Rain = 0
KFAS 140430Z 14011KT 05/M06 A3029 RMK A01 T00481061  RH  045%=      5-min Rain = 0
KFAS 140435Z 14010KT 05/M06 A3029 RMK A01 T00471061  RH  046%=      5-min Rain = 0
KFAS 140440Z 13011KT 05/M06 A3029 RMK A01 T00461061  RH  046%=      5-min Rain = 0
KFAS 140445Z 14011KT 04/M06 A3029 RMK A01 T00441061  RH  046%=      5-min Rain = 0
KFAS 140450Z 13011KT 04/M06 A3029 RMK A01 T00431061  RH  047%=      5-min Rain = 0
KFAS 140455Z 13011KT 04/M06 A3029 RMK A01 T00421061  RH  047%=      5-min Rain = 0
KFAS 140500Z 14011KT 04/M06 A3028 RMK A01 T00411061  RH  047%=      5-min Rain = 0

Page generated in 0.0129 seconds.